sensor_id;sensor_type;location;lat;lon;timestamp;temperature;humidity
16814;DHT22;8524;57.650;11.926;2023-02-19T00:01:44;1.90;99.90
16814;DHT22;8524;57.650;11.926;2023-02-19T00:04:12;2.00;99.90
16814;DHT22;8524;57.650;11.926;2023-02-19T00:06:40;2.00;99.90
16814;DHT22;8524;57.650;11.926;2023-02-19T00:09:09;2.00;99.90
16814;DHT22;8524;57.650;11.926;2023-02-19T00:11:38;2.10;99.90
16814;DHT22;8524;57.650;11.926;2023-02-19T00:14:05;2.10;99.90
16814;DHT22;8524;57.650;11.926;2023-02-19T00:16:34;2.10;99.90
16814;DHT22;8524;57.650;11.926;2023-02-19T00:19:03;2.00;99.90
16814;DHT22;8524;57.650;11.926;2023-02-19T00:21:30;1.90;99.90
16814;DHT22;8524;57.650;11.926;2023-02-19T00:23:59;2.00;99.90
16814;DHT22;8524;57.650;11.926;2023-02-19T00:26:27;1.90;99.90
16814;DHT22;8524;57.650;11.926;2023-02-19T00:28:56;1.90;99.90
16814;DHT22;8524;57.650;11.926;2023-02-19T00:31:25;2.00;99.90
16814;DHT22;8524;57.650;11.926;2023-02-19T00:33:55;2.00;99.90
16814;DHT22;8524;57.650;11.926;2023-02-19T00:36:23;2.10;99.90
16814;DHT22;8524;57.650;11.926;2023-02-19T00:38:50;2.10;99.90
16814;DHT22;8524;57.650;11.926;2023-02-19T00:41:19;2.10;99.90
16814;DHT22;8524;57.650;11.926;2023-02-19T00:43:48;2.20;99.90
16814;DHT22;8524;57.650;11.926;2023-02-19T00:46:20;2.20;99.90
16814;DHT22;8524;57.650;11.926;2023-02-19T00:48:47;2.20;99.90
16814;DHT22;8524;57.650;11.926;2023-02-19T00:51:15;2.20;99.90
16814;DHT22;8524;57.650;11.926;2023-02-19T00:53:42;2.30;99.90
16814;DHT22;8524;57.650;11.926;2023-02-19T00:56:09;2.30;99.90
16814;DHT22;8524;57.650;11.926;2023-02-19T00:58:36;2.30;99.90
16814;DHT22;8524;57.650;11.926;2023-02-19T01:01:04;2.30;99.90
16814;DHT22;8524;57.650;11.926;2023-02-19T01:03:33;2.30;99.90
16814;DHT22;8524;57.650;11.926;2023-02-19T01:06:00;2.40;99.90
16814;DHT22;8524;57.650;11.926;2023-02-19T01:08:29;2.40;99.90
16814;DHT22;8524;57.650;11.926;2023-02-19T01:10:56;2.40;99.90
16814;DHT22;8524;57.650;11.926;2023-02-19T01:13:24;2.40;99.90
16814;DHT22;8524;57.650;11.926;2023-02-19T01:15:51;2.50;99.90
16814;DHT22;8524;57.650;11.926;2023-02-19T01:18:18;2.60;99.90
16814;DHT22;8524;57.650;11.926;2023-02-19T01:20:46;2.50;99.90
16814;DHT22;8524;57.650;11.926;2023-02-19T01:23:13;2.50;99.90
16814;DHT22;8524;57.650;11.926;2023-02-19T01:25:41;2.40;99.90
16814;DHT22;8524;57.650;11.926;2023-02-19T01:28:09;2.40;99.90
16814;DHT22;8524;57.650;11.926;2023-02-19T01:30:37;2.40;99.90
16814;DHT22;8524;57.650;11.926;2023-02-19T01:33:05;2.30;99.90
16814;DHT22;8524;57.650;11.926;2023-02-19T01:35:32;2.40;99.90
16814;DHT22;8524;57.650;11.926;2023-02-19T01:38:01;2.30;99.90
16814;DHT22;8524;57.650;11.926;2023-02-19T01:40:28;2.30;99.90
16814;DHT22;8524;57.650;11.926;2023-02-19T01:42:55;2.20;99.90
16814;DHT22;8524;57.650;11.926;2023-02-19T01:45:26;2.20;99.90
16814;DHT22;8524;57.650;11.926;2023-02-19T01:48:01;2.10;99.90
16814;DHT22;8524;57.650;11.926;2023-02-19T01:50:33;2.10;99.90
16814;DHT22;8524;57.650;11.926;2023-02-19T01:53:06;2.00;99.90
16814;DHT22;8524;57.650;11.926;2023-02-19T01:55:36;2.00;99.90
16814;DHT22;8524;57.650;11.926;2023-02-19T01:58:03;1.90;99.90
16814;DHT22;8524;57.650;11.926;2023-02-19T02:00:32;1.70;99.90
16814;DHT22;8524;57.650;11.926;2023-02-19T02:02:59;1.80;99.90
16814;DHT22;8524;57.650;11.926;2023-02-19T02:05:38;1.70;99.90
16814;DHT22;8524;57.650;11.926;2023-02-19T02:08:08;1.60;99.90
16814;DHT22;8524;57.650;11.926;2023-02-19T02:10:53;1.40;99.90
16814;DHT22;8524;57.650;11.926;2023-02-19T02:13:21;1.40;99.90
16814;DHT22;8524;57.650;11.926;2023-02-19T02:15:53;1.50;99.90
16814;DHT22;8524;57.650;11.926;2023-02-19T02:18:30;1.60;99.90
16814;DHT22;8524;57.650;11.926;2023-02-19T02:21:10;1.60;99.90
16814;DHT22;8524;57.650;11.926;2023-02-19T02:23:53;1.60;99.90
16814;DHT22;8524;57.650;11.926;2023-02-19T02:26:34;1.60;99.90
16814;DHT22;8524;57.650;11.926;2023-02-19T02:29:25;1.60;99.90
16814;DHT22;8524;57.650;11.926;2023-02-19T02:32:02;1.60;99.90
16814;DHT22;8524;57.650;11.926;2023-02-19T02:34:35;1.50;99.90
16814;DHT22;8524;57.650;11.926;2023-02-19T02:37:06;1.50;99.90
16814;DHT22;8524;57.650;11.926;2023-02-19T02:39:35;1.50;99.90
16814;DHT22;8524;57.650;11.926;2023-02-19T02:42:04;1.60;99.90
16814;DHT22;8524;57.650;11.926;2023-02-19T02:44:49;1.60;99.90
16814;DHT22;8524;57.650;11.926;2023-02-19T02:47:33;1.60;99.90
16814;DHT22;8524;57.650;11.926;2023-02-19T02:50:12;1.70;99.90
16814;DHT22;8524;57.650;11.926;2023-02-19T02:52:43;1.70;99.90
16814;DHT22;8524;57.650;11.926;2023-02-19T02:55:30;1.80;99.90
16814;DHT22;8524;57.650;11.926;2023-02-19T02:58:01;1.80;99.90
16814;DHT22;8524;57.650;11.926;2023-02-19T03:00:28;1.80;99.90
16814;DHT22;8524;57.650;11.926;2023-02-19T03:03:25;1.80;99.90
16814;DHT22;8524;57.650;11.926;2023-02-19T03:05:55;1.90;99.90
16814;DHT22;8524;57.650;11.926;2023-02-19T03:08:27;1.90;99.90
16814;DHT22;8524;57.650;11.926;2023-02-19T03:10:57;1.80;99.90
16814;DHT22;8524;57.650;11.926;2023-02-19T03:13:47;1.80;99.90
16814;DHT22;8524;57.650;11.926;2023-02-19T03:16:34;1.90;99.90
16814;DHT22;8524;57.650;11.926;2023-02-19T03:19:23;1.80;99.90
16814;DHT22;8524;57.650;11.926;2023-02-19T03:21:53;1.70;99.90
16814;DHT22;8524;57.650;11.926;2023-02-19T03:24:25;1.80;99.90
16814;DHT22;8524;57.650;11.926;2023-02-19T03:27:12;1.80;99.90
16814;DHT22;8524;57.650;11.926;2023-02-19T03:29:41;1.80;99.90
16814;DHT22;8524;57.650;11.926;2023-02-19T03:32:11;1.80;99.90
16814;DHT22;8524;57.650;11.926;2023-02-19T03:34:43;1.80;99.90
16814;DHT22;8524;57.650;11.926;2023-02-19T03:37:14;1.70;99.90
16814;DHT22;8524;57.650;11.926;2023-02-19T03:39:42;1.70;99.90
16814;DHT22;8524;57.650;11.926;2023-02-19T03:42:20;1.60;99.90
16814;DHT22;8524;57.650;11.926;2023-02-19T03:45:06;1.60;99.90
16814;DHT22;8524;57.650;11.926;2023-02-19T03:47:41;1.60;99.90
16814;DHT22;8524;57.650;11.926;2023-02-19T03:50:16;1.50;99.90
16814;DHT22;8524;57.650;11.926;2023-02-19T03:52:51;1.50;99.90
16814;DHT22;8524;57.650;11.926;2023-02-19T03:55:25;1.50;99.90
16814;DHT22;8524;57.650;11.926;2023-02-19T03:57:57;1.40;99.90
16814;DHT22;8524;57.650;11.926;2023-02-19T04:00:31;1.30;99.90
16814;DHT22;8524;57.650;11.926;2023-02-19T04:03:04;1.30;99.90
16814;DHT22;8524;57.650;11.926;2023-02-19T04:05:38;1.20;99.90
16814;DHT22;8524;57.650;11.926;2023-02-19T04:08:12;1.00;99.90
16814;DHT22;8524;57.650;11.926;2023-02-19T04:10:40;0.90;99.90
16814;DHT22;8524;57.650;11.926;2023-02-19T04:13:13;0.90;99.90
16814;DHT22;8524;57.650;11.926;2023-02-19T04:15:43;1.00;99.90
16814;DHT22;8524;57.650;11.926;2023-02-19T04:18:14;1.10;99.90
16814;DHT22;8524;57.650;11.926;2023-02-19T04:20:44;1.10;99.90
16814;DHT22;8524;57.650;11.926;2023-02-19T04:23:15;1.10;99.90
16814;DHT22;8524;57.650;11.926;2023-02-19T04:25:45;1.10;99.90
16814;DHT22;8524;57.650;11.926;2023-02-19T04:28:15;1.10;99.90
16814;DHT22;8524;57.650;11.926;2023-02-19T04:30:43;1.20;99.90
16814;DHT22;8524;57.650;11.926;2023-02-19T04:33:10;1.20;99.90
16814;DHT22;8524;57.650;11.926;2023-02-19T04:35:37;1.30;99.90
16814;DHT22;8524;57.650;11.926;2023-02-19T04:38:05;1.20;99.90
16814;DHT22;8524;57.650;11.926;2023-02-19T04:40:32;1.10;99.90
16814;DHT22;8524;57.650;11.926;2023-02-19T04:42:59;1.10;99.90
16814;DHT22;8524;57.650;11.926;2023-02-19T04:45:26;1.10;99.90
16814;DHT22;8524;57.650;11.926;2023-02-19T04:47:53;1.20;99.90
16814;DHT22;8524;57.650;11.926;2023-02-19T04:50:20;1.20;99.90
16814;DHT22;8524;57.650;11.926;2023-02-19T04:52:47;1.30;99.90
16814;DHT22;8524;57.650;11.926;2023-02-19T04:55:16;1.30;99.90
16814;DHT22;8524;57.650;11.926;2023-02-19T04:57:43;1.30;99.90
16814;DHT22;8524;57.650;11.926;2023-02-19T05:00:11;1.30;99.90
16814;DHT22;8524;57.650;11.926;2023-02-19T05:02:38;1.40;99.90
16814;DHT22;8524;57.650;11.926;2023-02-19T05:05:06;1.40;99.90
16814;DHT22;8524;57.650;11.926;2023-02-19T05:07:33;1.40;99.90
16814;DHT22;8524;57.650;11.926;2023-02-19T05:10:00;1.40;99.90
16814;DHT22;8524;57.650;11.926;2023-02-19T05:12:30;1.40;99.90
16814;DHT22;8524;57.650;11.926;2023-02-19T05:14:57;1.40;99.90
16814;DHT22;8524;57.650;11.926;2023-02-19T05:17:24;1.40;99.90
16814;DHT22;8524;57.650;11.926;2023-02-19T05:19:51;1.40;99.90
16814;DHT22;8524;57.650;11.926;2023-02-19T05:22:18;1.40;99.90
16814;DHT22;8524;57.650;11.926;2023-02-19T05:24:45;1.40;99.90
16814;DHT22;8524;57.650;11.926;2023-02-19T05:27:12;1.40;99.90
16814;DHT22;8524;57.650;11.926;2023-02-19T05:29:40;1.40;99.90
16814;DHT22;8524;57.650;11.926;2023-02-19T05:32:07;1.30;99.90
16814;DHT22;8524;57.650;11.926;2023-02-19T05:34:34;1.30;99.90
16814;DHT22;8524;57.650;11.926;2023-02-19T05:37:01;1.30;99.90
16814;DHT22;8524;57.650;11.926;2023-02-19T05:39:28;1.30;99.90
16814;DHT22;8524;57.650;11.926;2023-02-19T05:41:55;1.20;99.90
16814;DHT22;8524;57.650;11.926;2023-02-19T05:44:23;1.20;99.90
16814;DHT22;8524;57.650;11.926;2023-02-19T05:46:51;1.20;99.90
16814;DHT22;8524;57.650;11.926;2023-02-19T05:49:18;1.20;99.90
16814;DHT22;8524;57.650;11.926;2023-02-19T05:51:45;1.10;99.90
16814;DHT22;8524;57.650;11.926;2023-02-19T05:54:15;1.00;99.90
16814;DHT22;8524;57.650;11.926;2023-02-19T05:56:42;1.00;99.90
16814;DHT22;8524;57.650;11.926;2023-02-19T05:59:15;1.00;99.90
16814;DHT22;8524;57.650;11.926;2023-02-19T06:01:42;1.00;99.90
16814;DHT22;8524;57.650;11.926;2023-02-19T06:04:11;1.00;99.90
16814;DHT22;8524;57.650;11.926;2023-02-19T06:06:39;1.10;99.90
16814;DHT22;8524;57.650;11.926;2023-02-19T06:09:07;1.00;99.90
16814;DHT22;8524;57.650;11.926;2023-02-19T06:11:35;1.00;99.90
16814;DHT22;8524;57.650;11.926;2023-02-19T06:14:02;0.90;99.90
16814;DHT22;8524;57.650;11.926;2023-02-19T06:16:30;1.00;99.90
16814;DHT22;8524;57.650;11.926;2023-02-19T06:18:58;0.90;99.90
16814;DHT22;8524;57.650;11.926;2023-02-19T06:21:28;0.80;99.90
16814;DHT22;8524;57.650;11.926;2023-02-19T06:23:55;0.80;99.90
16814;DHT22;8524;57.650;11.926;2023-02-19T06:26:23;0.70;99.90
16814;DHT22;8524;57.650;11.926;2023-02-19T06:28:51;0.60;99.90
16814;DHT22;8524;57.650;11.926;2023-02-19T06:31:20;0.50;99.90
16814;DHT22;8524;57.650;11.926;2023-02-19T06:33:47;0.40;99.90
16814;DHT22;8524;57.650;11.926;2023-02-19T06:36:16;0.40;99.90
16814;DHT22;8524;57.650;11.926;2023-02-19T06:38:46;0.40;99.90
16814;DHT22;8524;57.650;11.926;2023-02-19T06:41:13;0.40;99.90
16814;DHT22;8524;57.650;11.926;2023-02-19T06:43:41;0.30;99.90
16814;DHT22;8524;57.650;11.926;2023-02-19T06:46:10;0.30;99.90
16814;DHT22;8524;57.650;11.926;2023-02-19T06:48:38;0.30;99.90
16814;DHT22;8524;57.650;11.926;2023-02-19T06:51:05;0.30;99.90
16814;DHT22;8524;57.650;11.926;2023-02-19T06:53:32;0.20;99.90
16814;DHT22;8524;57.650;11.926;2023-02-19T06:56:04;0.00;99.90
16814;DHT22;8524;57.650;11.926;2023-02-19T06:58:31;0.00;99.90
16814;DHT22;8524;57.650;11.926;2023-02-19T07:00:59;0.00;99.90
16814;DHT22;8524;57.650;11.926;2023-02-19T07:03:26;-0.10;99.90
16814;DHT22;8524;57.650;11.926;2023-02-19T07:05:53;0.00;99.90
16814;DHT22;8524;57.650;11.926;2023-02-19T07:08:20;0.10;99.90
16814;DHT22;8524;57.650;11.926;2023-02-19T07:10:53;0.10;99.90
16814;DHT22;8524;57.650;11.926;2023-02-19T07:13:22;0.10;99.90
16814;DHT22;8524;57.650;11.926;2023-02-19T07:15:49;0.10;99.90
16814;DHT22;8524;57.650;11.926;2023-02-19T07:18:16;0.20;99.90
16814;DHT22;8524;57.650;11.926;2023-02-19T07:20:43;0.20;99.90
16814;DHT22;8524;57.650;11.926;2023-02-19T07:23:10;0.10;99.90
16814;DHT22;8524;57.650;11.926;2023-02-19T07:25:38;0.10;99.90
16814;DHT22;8524;57.650;11.926;2023-02-19T07:28:05;0.10;99.90
16814;DHT22;8524;57.650;11.926;2023-02-19T07:30:34;0.10;99.90
16814;DHT22;8524;57.650;11.926;2023-02-19T07:33:01;0.10;99.90
16814;DHT22;8524;57.650;11.926;2023-02-19T07:35:28;0.10;99.90
16814;DHT22;8524;57.650;11.926;2023-02-19T07:37:55;0.10;99.90
16814;DHT22;8524;57.650;11.926;2023-02-19T07:40:22;0.20;99.90
16814;DHT22;8524;57.650;11.926;2023-02-19T07:42:49;0.30;99.90
16814;DHT22;8524;57.650;11.926;2023-02-19T07:45:16;0.30;99.90
16814;DHT22;8524;57.650;11.926;2023-02-19T07:47:44;0.40;99.90
16814;DHT22;8524;57.650;11.926;2023-02-19T07:50:11;0.50;99.90
16814;DHT22;8524;57.650;11.926;2023-02-19T07:52:38;0.50;99.90
16814;DHT22;8524;57.650;11.926;2023-02-19T07:55:06;0.60;99.90
16814;DHT22;8524;57.650;11.926;2023-02-19T07:57:33;0.80;99.90
16814;DHT22;8524;57.650;11.926;2023-02-19T08:00:00;0.90;99.90
16814;DHT22;8524;57.650;11.926;2023-02-19T08:02:27;1.10;99.90
16814;DHT22;8524;57.650;11.926;2023-02-19T08:05:13;1.40;99.90
16814;DHT22;8524;57.650;11.926;2023-02-19T08:07:40;1.70;99.90
16814;DHT22;8524;57.650;11.926;2023-02-19T08:10:07;1.80;99.90
16814;DHT22;8524;57.650;11.926;2023-02-19T08:12:55;2.00;99.90
16814;DHT22;8524;57.650;11.926;2023-02-19T08:15:42;2.10;99.90
16814;DHT22;8524;57.650;11.926;2023-02-19T08:18:10;2.40;99.90
16814;DHT22;8524;57.650;11.926;2023-02-19T08:20:40;2.60;99.90
16814;DHT22;8524;57.650;11.926;2023-02-19T08:23:07;2.80;99.90
16814;DHT22;8524;57.650;11.926;2023-02-19T08:25:35;2.90;99.90
16814;DHT22;8524;57.650;11.926;2023-02-19T08:28:03;2.90;99.90
16814;DHT22;8524;57.650;11.926;2023-02-19T08:30:31;2.90;99.90
16814;DHT22;8524;57.650;11.926;2023-02-19T08:32:59;3.00;99.90
16814;DHT22;8524;57.650;11.926;2023-02-19T08:35:27;3.00;99.90
16814;DHT22;8524;57.650;11.926;2023-02-19T08:37:56;3.10;99.90
16814;DHT22;8524;57.650;11.926;2023-02-19T08:40:23;3.10;99.90
16814;DHT22;8524;57.650;11.926;2023-02-19T08:42:51;3.10;99.90
16814;DHT22;8524;57.650;11.926;2023-02-19T08:45:18;3.10;99.90
16814;DHT22;8524;57.650;11.926;2023-02-19T08:47:45;3.20;99.90
16814;DHT22;8524;57.650;11.926;2023-02-19T08:50:12;3.30;99.90
16814;DHT22;8524;57.650;11.926;2023-02-19T08:52:39;3.30;99.90
16814;DHT22;8524;57.650;11.926;2023-02-19T08:55:08;3.40;99.90
16814;DHT22;8524;57.650;11.926;2023-02-19T08:57:35;3.60;99.90
16814;DHT22;8524;57.650;11.926;2023-02-19T09:00:03;3.70;99.90
16814;DHT22;8524;57.650;11.926;2023-02-19T09:02:31;3.80;99.90
16814;DHT22;8524;57.650;11.926;2023-02-19T09:04:58;3.80;99.90
16814;DHT22;8524;57.650;11.926;2023-02-19T09:07:25;3.80;99.90
16814;DHT22;8524;57.650;11.926;2023-02-19T09:09:52;3.80;99.90
16814;DHT22;8524;57.650;11.926;2023-02-19T09:12:20;4.00;99.90
16814;DHT22;8524;57.650;11.926;2023-02-19T09:14:48;3.90;99.90
16814;DHT22;8524;57.650;11.926;2023-02-19T09:17:15;4.00;99.90
16814;DHT22;8524;57.650;11.926;2023-02-19T09:19:42;4.20;99.90
16814;DHT22;8524;57.650;11.926;2023-02-19T09:22:09;4.40;99.90
16814;DHT22;8524;57.650;11.926;2023-02-19T09:24:36;4.50;99.90
16814;DHT22;8524;57.650;11.926;2023-02-19T09:27:03;4.60;99.90
16814;DHT22;8524;57.650;11.926;2023-02-19T09:29:31;4.70;99.90
16814;DHT22;8524;57.650;11.926;2023-02-19T09:32:00;4.60;99.90
16814;DHT22;8524;57.650;11.926;2023-02-19T09:34:27;4.70;99.90
16814;DHT22;8524;57.650;11.926;2023-02-19T09:36:54;4.70;99.90
16814;DHT22;8524;57.650;11.926;2023-02-19T09:39:22;4.60;99.90
16814;DHT22;8524;57.650;11.926;2023-02-19T09:41:51;4.70;99.90
16814;DHT22;8524;57.650;11.926;2023-02-19T09:44:23;4.60;99.90
16814;DHT22;8524;57.650;11.926;2023-02-19T09:46:53;4.60;99.90
16814;DHT22;8524;57.650;11.926;2023-02-19T09:49:24;4.60;99.90
16814;DHT22;8524;57.650;11.926;2023-02-19T09:51:56;4.70;99.90
16814;DHT22;8524;57.650;11.926;2023-02-19T09:54:27;4.70;99.90
16814;DHT22;8524;57.650;11.926;2023-02-19T09:56:55;4.80;99.90
16814;DHT22;8524;57.650;11.926;2023-02-19T09:59:25;5.00;99.90
16814;DHT22;8524;57.650;11.926;2023-02-19T10:01:58;5.00;99.90
16814;DHT22;8524;57.650;11.926;2023-02-19T10:04:26;5.10;99.90
16814;DHT22;8524;57.650;11.926;2023-02-19T10:06:55;5.20;99.90
16814;DHT22;8524;57.650;11.926;2023-02-19T10:09:29;5.30;99.90
16814;DHT22;8524;57.650;11.926;2023-02-19T10:11:57;5.30;99.90
16814;DHT22;8524;57.650;11.926;2023-02-19T10:14:30;5.40;99.90
16814;DHT22;8524;57.650;11.926;2023-02-19T10:17:04;5.30;99.90
16814;DHT22;8524;57.650;11.926;2023-02-19T10:19:32;5.40;99.90
16814;DHT22;8524;57.650;11.926;2023-02-19T10:22:00;5.40;99.90
16814;DHT22;8524;57.650;11.926;2023-02-19T10:24:29;5.30;99.90
16814;DHT22;8524;57.650;11.926;2023-02-19T10:26:56;5.40;99.90
16814;DHT22;8524;57.650;11.926;2023-02-19T10:29:23;5.50;99.90
16814;DHT22;8524;57.650;11.926;2023-02-19T10:32:15;5.60;99.90
16814;DHT22;8524;57.650;11.926;2023-02-19T10:34:45;5.70;99.90
16814;DHT22;8524;57.650;11.926;2023-02-19T10:37:15;5.80;99.90
16814;DHT22;8524;57.650;11.926;2023-02-19T10:39:44;5.90;99.90
16814;DHT22;8524;57.650;11.926;2023-02-19T10:42:20;6.00;99.90
16814;DHT22;8524;57.650;11.926;2023-02-19T10:44:52;6.00;99.90
16814;DHT22;8524;57.650;11.926;2023-02-19T10:47:24;6.10;99.90
16814;DHT22;8524;57.650;11.926;2023-02-19T10:49:52;6.10;99.90
16814;DHT22;8524;57.650;11.926;2023-02-19T10:52:24;6.20;99.90
16814;DHT22;8524;57.650;11.926;2023-02-19T10:54:55;6.20;99.90
16814;DHT22;8524;57.650;11.926;2023-02-19T10:57:27;6.20;99.90
16814;DHT22;8524;57.650;11.926;2023-02-19T11:00:02;6.20;99.90
16814;DHT22;8524;57.650;11.926;2023-02-19T11:02:34;6.30;99.90
16814;DHT22;8524;57.650;11.926;2023-02-19T11:05:15;6.30;99.90
16814;DHT22;8524;57.650;11.926;2023-02-19T11:07:44;6.30;99.90
16814;DHT22;8524;57.650;11.926;2023-02-19T11:10:23;6.30;99.90
16814;DHT22;8524;57.650;11.926;2023-02-19T11:12:53;6.20;99.90
16814;DHT22;8524;57.650;11.926;2023-02-19T11:15:22;6.20;99.90
16814;DHT22;8524;57.650;11.926;2023-02-19T11:17:56;6.30;99.90
16814;DHT22;8524;57.650;11.926;2023-02-19T11:20:25;6.40;99.90
16814;DHT22;8524;57.650;11.926;2023-02-19T11:22:57;6.40;99.90
16814;DHT22;8524;57.650;11.926;2023-02-19T11:25:26;6.50;99.90
16814;DHT22;8524;57.650;11.926;2023-02-19T11:27:59;6.40;99.90
16814;DHT22;8524;57.650;11.926;2023-02-19T11:30:39;6.40;99.90
16814;DHT22;8524;57.650;11.926;2023-02-19T11:33:24;6.40;99.90
16814;DHT22;8524;57.650;11.926;2023-02-19T11:35:58;6.30;99.90
16814;DHT22;8524;57.650;11.926;2023-02-19T11:38:26;6.20;99.90
16814;DHT22;8524;57.650;11.926;2023-02-19T11:41:01;6.20;99.90
16814;DHT22;8524;57.650;11.926;2023-02-19T11:43:45;6.20;99.90
16814;DHT22;8524;57.650;11.926;2023-02-19T11:46:19;6.20;99.90
16814;DHT22;8524;57.650;11.926;2023-02-19T11:48:57;6.10;99.90
16814;DHT22;8524;57.650;11.926;2023-02-19T11:51:44;6.10;99.90
16814;DHT22;8524;57.650;11.926;2023-02-19T11:54:24;5.80;99.90
16814;DHT22;8524;57.650;11.926;2023-02-19T11:57:04;5.60;99.90
16814;DHT22;8524;57.650;11.926;2023-02-19T11:59:41;5.40;99.90
16814;DHT22;8524;57.650;11.926;2023-02-19T12:02:43;5.20;99.90
16814;DHT22;8524;57.650;11.926;2023-02-19T12:05:39;5.20;99.90
16814;DHT22;8524;57.650;11.926;2023-02-19T12:11:13;5.00;99.90
16814;DHT22;8524;57.650;11.926;2023-02-19T12:14:00;4.90;99.90
16814;DHT22;8524;57.650;11.926;2023-02-19T12:16:34;4.90;99.90
16814;DHT22;8524;57.650;11.926;2023-02-19T12:19:19;4.90;99.90
16814;DHT22;8524;57.650;11.926;2023-02-19T12:22:05;5.00;99.90
16814;DHT22;8524;57.650;11.926;2023-02-19T12:25:20;5.10;99.90
16814;DHT22;8524;57.650;11.926;2023-02-19T12:28:08;5.10;99.90
16814;DHT22;8524;57.650;11.926;2023-02-19T12:34:06;5.20;99.90
16814;DHT22;8524;57.650;11.926;2023-02-19T12:36:44;5.20;99.90
16814;DHT22;8524;57.650;11.926;2023-02-19T12:39:23;5.20;99.90
16814;DHT22;8524;57.650;11.926;2023-02-19T12:42:00;5.20;99.90
16814;DHT22;8524;57.650;11.926;2023-02-19T12:44:37;5.20;99.90
16814;DHT22;8524;57.650;11.926;2023-02-19T12:47:07;5.20;99.90
16814;DHT22;8524;57.650;11.926;2023-02-19T12:49:42;5.20;99.90
16814;DHT22;8524;57.650;11.926;2023-02-19T12:52:16;5.20;99.90
16814;DHT22;8524;57.650;11.926;2023-02-19T12:54:48;5.20;99.90
16814;DHT22;8524;57.650;11.926;2023-02-19T12:57:18;5.20;99.90
16814;DHT22;8524;57.650;11.926;2023-02-19T12:59:49;5.20;99.90
16814;DHT22;8524;57.650;11.926;2023-02-19T13:02:21;5.20;99.90
16814;DHT22;8524;57.650;11.926;2023-02-19T13:04:57;5.10;99.90
16814;DHT22;8524;57.650;11.926;2023-02-19T13:07:29;5.10;99.90
16814;DHT22;8524;57.650;11.926;2023-02-19T13:10:13;5.10;99.90
16814;DHT22;8524;57.650;11.926;2023-02-19T13:12:43;5.10;99.90
16814;DHT22;8524;57.650;11.926;2023-02-19T13:15:14;5.10;99.90
16814;DHT22;8524;57.650;11.926;2023-02-19T13:17:44;5.10;99.90
16814;DHT22;8524;57.650;11.926;2023-02-19T13:20:24;5.00;99.90
16814;DHT22;8524;57.650;11.926;2023-02-19T13:22:59;5.10;99.90
16814;DHT22;8524;57.650;11.926;2023-02-19T13:25:58;5.10;99.90
16814;DHT22;8524;57.650;11.926;2023-02-19T13:28:42;5.10;99.90
16814;DHT22;8524;57.650;11.926;2023-02-19T13:31:38;5.20;99.90
16814;DHT22;8524;57.650;11.926;2023-02-19T13:34:16;5.20;99.90
16814;DHT22;8524;57.650;11.926;2023-02-19T13:36:46;5.20;99.90
16814;DHT22;8524;57.650;11.926;2023-02-19T13:39:15;5.30;99.90
16814;DHT22;8524;57.650;11.926;2023-02-19T13:41:49;5.30;99.90
16814;DHT22;8524;57.650;11.926;2023-02-19T13:44:18;5.40;99.90
16814;DHT22;8524;57.650;11.926;2023-02-19T13:46:47;5.50;99.90
16814;DHT22;8524;57.650;11.926;2023-02-19T13:49:42;5.70;99.90
16814;DHT22;8524;57.650;11.926;2023-02-19T13:52:36;5.80;99.90
16814;DHT22;8524;57.650;11.926;2023-02-19T14:04:24;6.30;99.90
16814;DHT22;8524;57.650;11.926;2023-02-19T14:07:21;6.30;99.90
16814;DHT22;8524;57.650;11.926;2023-02-19T14:09:48;6.30;99.90
16814;DHT22;8524;57.650;11.926;2023-02-19T14:12:19;6.30;99.90
16814;DHT22;8524;57.650;11.926;2023-02-19T14:14:47;6.20;99.90
16814;DHT22;8524;57.650;11.926;2023-02-19T14:17:27;6.20;99.90
16814;DHT22;8524;57.650;11.926;2023-02-19T14:19:57;6.30;99.90
16814;DHT22;8524;57.650;11.926;2023-02-19T14:22:48;6.30;99.90
16814;DHT22;8524;57.650;11.926;2023-02-19T14:25:44;6.40;99.90
16814;DHT22;8524;57.650;11.926;2023-02-19T14:28:18;6.40;99.90
16814;DHT22;8524;57.650;11.926;2023-02-19T14:30:49;6.40;99.90
16814;DHT22;8524;57.650;11.926;2023-02-19T14:33:20;6.40;99.90
16814;DHT22;8524;57.650;11.926;2023-02-19T14:35:51;6.40;99.90
16814;DHT22;8524;57.650;11.926;2023-02-19T14:38:21;6.50;99.90
16814;DHT22;8524;57.650;11.926;2023-02-19T14:40:49;6.50;99.90
16814;DHT22;8524;57.650;11.926;2023-02-19T14:43:21;6.60;99.90
16814;DHT22;8524;57.650;11.926;2023-02-19T14:45:52;6.60;99.90
16814;DHT22;8524;57.650;11.926;2023-02-19T14:48:24;6.70;99.90
16814;DHT22;8524;57.650;11.926;2023-02-19T14:50:56;6.70;99.90
16814;DHT22;8524;57.650;11.926;2023-02-19T14:53:25;6.70;99.90
16814;DHT22;8524;57.650;11.926;2023-02-19T14:55:55;6.70;99.90
16814;DHT22;8524;57.650;11.926;2023-02-19T14:58:26;6.70;99.90
16814;DHT22;8524;57.650;11.926;2023-02-19T15:00:54;6.70;99.90
16814;DHT22;8524;57.650;11.926;2023-02-19T15:03:31;6.70;99.90
16814;DHT22;8524;57.650;11.926;2023-02-19T15:06:02;6.70;99.90
16814;DHT22;8524;57.650;11.926;2023-02-19T15:08:34;6.70;99.90
16814;DHT22;8524;57.650;11.926;2023-02-19T15:11:03;6.70;99.90
16814;DHT22;8524;57.650;11.926;2023-02-19T15:13:34;6.70;99.90
16814;DHT22;8524;57.650;11.926;2023-02-19T15:16:01;6.70;99.90
16814;DHT22;8524;57.650;11.926;2023-02-19T15:18:30;6.70;99.90
16814;DHT22;8524;57.650;11.926;2023-02-19T15:21:03;6.70;99.90
16814;DHT22;8524;57.650;11.926;2023-02-19T15:23:31;6.60;99.90
16814;DHT22;8524;57.650;11.926;2023-02-19T15:26:00;6.70;99.90
16814;DHT22;8524;57.650;11.926;2023-02-19T15:28:30;6.60;99.90
16814;DHT22;8524;57.650;11.926;2023-02-19T15:31:13;6.60;99.90
16814;DHT22;8524;57.650;11.926;2023-02-19T15:33:49;6.60;99.90
16814;DHT22;8524;57.650;11.926;2023-02-19T15:36:23;6.60;99.90
16814;DHT22;8524;57.650;11.926;2023-02-19T15:38:53;6.50;99.90
16814;DHT22;8524;57.650;11.926;2023-02-19T15:41:21;6.50;99.90
16814;DHT22;8524;57.650;11.926;2023-02-19T15:43:52;6.50;99.90
16814;DHT22;8524;57.650;11.926;2023-02-19T15:46:22;6.50;99.90
16814;DHT22;8524;57.650;11.926;2023-02-19T15:48:55;6.50;99.90
16814;DHT22;8524;57.650;11.926;2023-02-19T15:51:28;6.50;99.90
16814;DHT22;8524;57.650;11.926;2023-02-19T15:54:03;6.50;99.90
16814;DHT22;8524;57.650;11.926;2023-02-19T15:56:34;6.50;99.90
16814;DHT22;8524;57.650;11.926;2023-02-19T15:59:04;6.50;99.90
16814;DHT22;8524;57.650;11.926;2023-02-19T16:01:34;6.50;99.90
16814;DHT22;8524;57.650;11.926;2023-02-19T16:04:07;6.50;99.90
16814;DHT22;8524;57.650;11.926;2023-02-19T16:06:53;6.50;99.90
16814;DHT22;8524;57.650;11.926;2023-02-19T16:09:22;6.50;99.90
16814;DHT22;8524;57.650;11.926;2023-02-19T16:11:51;6.40;99.90
16814;DHT22;8524;57.650;11.926;2023-02-19T16:14:23;6.40;99.90
16814;DHT22;8524;57.650;11.926;2023-02-19T16:16:53;6.40;99.90
16814;DHT22;8524;57.650;11.926;2023-02-19T16:19:24;6.40;99.90
16814;DHT22;8524;57.650;11.926;2023-02-19T16:21:52;6.40;99.90
16814;DHT22;8524;57.650;11.926;2023-02-19T16:24:25;6.40;99.90
16814;DHT22;8524;57.650;11.926;2023-02-19T16:26:53;6.40;99.90
16814;DHT22;8524;57.650;11.926;2023-02-19T16:29:22;6.40;99.90